Time;durP1;ratioP1;P1;durP2;ratioP2;P2;SDS_P1;SDS_P2;PMS_P1;PMS_P2;Temp;Humidity;BMP_temperature;BMP_pressure;BME280_temperature;BME280_humidity;BME280_pressure;Samples;Min_cycle;Max_cycle;Signal;HPM_P1;HPM_P2
2024/01/27 00:00:43;;;;;;;31.17;5.00;;;;;;;;;;5119840;28;20028;-62
2024/01/27 00:03:09;;;;;;;23.55;4.45;;;;;;;;;;5114268;28;20276;-61
2024/01/27 00:05:34;;;;;;;24.87;4.90;;;;;;;;;;5114972;28;20043;-61
2024/01/27 00:08:00;;;;;;;23.50;5.20;;;;;;;;;;5104825;28;20025;-61
2024/01/27 00:10:25;;;;;;;23.88;4.80;;;;;;;;;;5110693;28;20035;-61
2024/01/27 00:12:51;;;;;;;26.23;4.93;;;;;;;;;;5114202;28;20054;-61
2024/01/27 00:15:16;;;;;;;18.73;4.10;;;;;;;;;;5101346;28;20048;-61
2024/01/27 00:17:42;;;;;;;20.08;5.03;;;;;;;;;;5118937;28;20028;-61
2024/01/27 00:20:08;;;;;;;18.77;6.17;;;;;;;;;;5117044;28;20036;-61
2024/01/27 00:22:33;;;;;;;19.58;5.05;;;;;;;;;;5123286;28;20422;-60
2024/01/27 00:24:58;;;;;;;28.17;6.43;;;;;;;;;;5123753;28;20043;-60
2024/01/27 00:27:24;;;;;;;31.13;6.20;;;;;;;;;;5115071;28;20038;-61
2024/01/27 00:29:50;;;;;;;37.17;6.22;;;;;;;;;;5114027;28;20043;-60
2024/01/27 00:32:16;;;;;;;26.17;5.95;;;;;;;;;;5122904;28;20051;-61
2024/01/27 00:34:41;;;;;;;30.70;5.33;;;;;;;;;;5120914;28;20109;-61
2024/01/27 00:37:06;;;;;;;38.70;7.43;;;;;;;;;;5098083;28;20303;-60
2024/01/27 00:39:32;;;;;;;17.17;5.57;;;;;;;;;;5114153;28;20040;-62
2024/01/27 00:41:58;;;;;;;25.65;4.15;;;;;;;;;;5114511;28;20036;-61
2024/01/27 00:44:24;;;;;;;25.08;5.22;;;;;;;;;;5113828;28;20028;-62
2024/01/27 00:46:49;;;;;;;21.93;6.03;;;;;;;;;;5120501;28;20043;-63
2024/01/27 00:49:15;;;;;;;21.17;6.40;;;;;;;;;;5114121;28;20016;-61
2024/01/27 00:51:40;;;;;;;16.67;5.10;;;;;;;;;;5110289;28;20036;-61
2024/01/27 00:54:05;;;;;;;19.83;4.63;;;;;;;;;;5109455;28;20027;-61
2024/01/27 00:56:31;;;;;;;22.27;5.73;;;;;;;;;;5112800;28;20092;-60
2024/01/27 00:58:57;;;;;;;;;;;;;;;;;;5113820;28;20029;-62
2024/01/27 01:01:23;;;;;;;18.77;4.70;;;;;;;;;;5113305;28;19918;-62
2024/01/27 01:03:48;;;;;;;24.23;5.23;;;;;;;;;;5113208;28;20051;-62
2024/01/27 01:06:14;;;;;;;20.52;5.57;;;;;;;;;;5113489;28;20028;-62
2024/01/27 01:08:39;;;;;;;17.95;5.22;;;;;;;;;;5113750;28;20032;-62
2024/01/27 01:11:04;;;;;;;11.90;3.93;;;;;;;;;;5116690;28;20043;-61
2024/01/27 01:13:30;;;;;;;22.40;5.90;;;;;;;;;;5113792;28;20050;-61
2024/01/27 01:15:55;;;;;;;16.33;4.40;;;;;;;;;;5117520;28;20057;-61
2024/01/27 01:18:21;;;;;;;18.47;4.17;;;;;;;;;;5125057;28;20039;-61
2024/01/27 01:20:46;;;;;;;14.20;4.97;;;;;;;;;;5119364;28;20039;-61
2024/01/27 01:23:11;;;;;;;17.53;4.20;;;;;;;;;;5117421;28;20024;-62
2024/01/27 01:25:37;;;;;;;25.05;5.38;;;;;;;;;;5128056;28;20035;-61
2024/01/27 01:28:03;;;;;;;32.73;5.67;;;;;;;;;;5117329;28;20039;-60
2024/01/27 01:30:29;;;;;;;24.47;5.33;;;;;;;;;;5106616;28;20023;-61
2024/01/27 01:32:54;;;;;;;15.30;4.20;;;;;;;;;;5120111;28;20056;-62
2024/01/27 01:35:20;;;;;;;31.50;5.63;;;;;;;;;;5120126;28;20038;-61
2024/01/27 01:37:48;;;;;;;17.17;5.17;;;;;;;;;;5117032;28;20268;-62
2024/01/27 01:40:15;;;;;;;15.35;4.50;;;;;;;;;;5116897;28;20038;-62
2024/01/27 01:42:40;;;;;;;17.08;3.97;;;;;;;;;;5116442;28;20047;-61
2024/01/27 01:45:05;;;;;;;25.10;5.10;;;;;;;;;;5123252;28;20047;-61
2024/01/27 01:47:31;;;;;;;27.38;3.65;;;;;;;;;;5120149;28;20114;-59
2024/01/27 01:49:56;;;;;;;14.95;4.22;;;;;;;;;;5116545;28;20036;-61
2024/01/27 01:52:22;;;;;;;15.63;3.97;;;;;;;;;;5119496;28;20040;-61
2024/01/27 01:54:48;;;;;;;27.92;6.22;;;;;;;;;;5103735;28;20032;-60
2024/01/27 01:57:14;;;;;;;27.55;5.10;;;;;;;;;;5125035;28;20048;-59
2024/01/27 01:59:40;;;;;;;18.83;4.43;;;;;;;;;;5118490;28;20061;-60
2024/01/27 02:02:07;;;;;;;15.35;4.22;;;;;;;;;;5126265;28;20032;-60
2024/01/27 02:04:39;;;;;;;24.40;5.70;;;;;;;;;;5116505;28;20050;-60
2024/01/27 02:07:04;;;;;;;26.25;5.53;;;;;;;;;;5108788;28;20039;-61
2024/01/27 02:09:31;;;;;;;20.80;5.82;;;;;;;;;;5107352;28;20028;-62
2024/01/27 02:11:56;;;;;;;32.67;5.35;;;;;;;;;;5119118;28;20119;-61
2024/01/27 02:14:25;;;;;;;19.25;4.50;;;;;;;;;;5115199;28;20058;-61
2024/01/27 02:16:50;;;;;;;27.00;5.00;;;;;;;;;;5120768;28;20028;-61
2024/01/27 02:19:15;;;;;;;23.73;4.23;;;;;;;;;;5114846;28;20057;-61
2024/01/27 02:21:41;;;;;;;18.80;5.63;;;;;;;;;;5115727;28;20307;-61
2024/01/27 02:24:10;;;;;;;27.27;6.73;;;;;;;;;;5115379;28;20036;-61
2024/01/27 02:26:36;;;;;;;19.17;4.30;;;;;;;;;;5117198;28;20047;-61
2024/01/27 02:29:01;;;;;;;20.40;4.90;;;;;;;;;;5117585;28;20038;-61
2024/01/27 02:31:27;;;;;;;20.27;4.57;;;;;;;;;;5113235;28;20482;-61
2024/01/27 02:33:52;;;;;;;17.08;5.13;;;;;;;;;;5116048;28;20036;-62
2024/01/27 02:36:18;;;;;;;27.77;5.17;;;;;;;;;;5125453;28;20036;-61
2024/01/27 02:38:43;;;;;;;21.17;5.63;;;;;;;;;;5116135;28;20260;-60
2024/01/27 02:41:09;;;;;;;20.77;4.73;;;;;;;;;;5116207;28;20334;-60
2024/01/27 02:43:35;;;;;;;26.58;5.80;;;;;;;;;;5121128;28;20035;-62
2024/01/27 02:46:00;;;;;;;50.50;6.57;;;;;;;;;;5112875;28;20027;-61
2024/01/27 02:48:26;;;;;;;28.00;4.68;;;;;;;;;;5108090;28;20026;-61
2024/01/27 02:50:51;;;;;;;16.63;4.50;;;;;;;;;;5104306;28;20039;-61
2024/01/27 02:53:17;;;;;;;15.30;5.17;;;;;;;;;;5120835;28;20276;-61
2024/01/27 02:55:42;;;;;;;24.05;6.10;;;;;;;;;;5116994;28;20051;-62
2024/01/27 02:58:08;;;;;;;19.80;5.60;;;;;;;;;;5121944;28;20027;-61
2024/01/27 03:00:33;;;;;;;19.40;6.17;;;;;;;;;;5107357;28;20265;-62
2024/01/27 03:02:59;;;;;;;21.80;5.63;;;;;;;;;;5119955;28;20028;-61
2024/01/27 03:05:24;;;;;;;23.05;6.05;;;;;;;;;;5114374;28;20028;-61
2024/01/27 03:07:50;;;;;;;31.17;6.47;;;;;;;;;;5127371;28;20040;-61
2024/01/27 03:10:15;;;;;;;18.15;6.03;;;;;;;;;;5115180;28;20042;-61
2024/01/27 03:12:41;;;;;;;29.90;6.90;;;;;;;;;;5118865;28;20087;-61
2024/01/27 03:15:07;;;;;;;15.33;5.40;;;;;;;;;;5120647;28;20253;-61
2024/01/27 03:17:33;;;;;;;18.95;6.72;;;;;;;;;;5116121;28;20053;-62
2024/01/27 03:19:58;;;;;;;28.70;8.03;;;;;;;;;;5114593;28;20035;-62
2024/01/27 03:22:23;;;;;;;25.77;7.93;;;;;;;;;;5115309;28;20032;-61
2024/01/27 03:24:51;;;;;;;27.35;8.52;;;;;;;;;;5115148;28;20043;-61
2024/01/27 03:27:16;;;;;;;24.67;8.35;;;;;;;;;;5125761;28;20061;-61
2024/01/27 03:29:42;;;;;;;20.87;7.50;;;;;;;;;;5116237;28;20024;-61
2024/01/27 03:32:07;;;;;;;22.33;9.20;;;;;;;;;;5114951;28;20028;-61
2024/01/27 03:34:33;;;;;;;38.83;11.07;;;;;;;;;;5124049;28;20073;-61
2024/01/27 03:36:58;;;;;;;27.77;10.10;;;;;;;;;;5118066;28;20269;-61
2024/01/27 03:39:24;;;;;;;32.13;9.70;;;;;;;;;;5121680;28;20056;-60
2024/01/27 03:41:49;;;;;;;28.97;10.17;;;;;;;;;;5114960;28;20095;-61
2024/01/27 03:44:15;;;;;;;22.17;9.20;;;;;;;;;;5114992;28;20039;-61
2024/01/27 03:46:40;;;;;;;32.17;10.93;;;;;;;;;;5121296;28;20032;-62
2024/01/27 03:49:06;;;;;;;37.97;9.80;;;;;;;;;;5122781;28;20028;-61
2024/01/27 03:51:31;;;;;;;34.40;10.27;;;;;;;;;;5101337;28;20268;-61
2024/01/27 03:53:57;;;;;;;28.73;9.57;;;;;;;;;;5117777;28;20260;-61
2024/01/27 03:56:22;;;;;;;41.57;11.60;;;;;;;;;;5114727;28;20055;-62
2024/01/27 03:58:48;;;;;;;19.63;8.03;;;;;;;;;;5114108;28;20296;-60
2024/01/27 04:01:14;;;;;;;37.65;11.98;;;;;;;;;;5125297;28;20092;-60
2024/01/27 04:03:40;;;;;;;35.95;11.25;;;;;;;;;;5114220;28;20032;-60
2024/01/27 04:06:05;;;;;;;30.20;12.00;;;;;;;;;;5114648;28;20096;-61
2024/01/27 04:08:31;;;;;;;32.10;9.77;;;;;;;;;;5122582;28;20063;-60
2024/01/27 04:10:56;;;;;;;35.92;13.05;;;;;;;;;;5114182;28;20040;-61
2024/01/27 04:13:22;;;;;;;28.10;9.75;;;;;;;;;;5114028;28;20032;-60
2024/01/27 04:15:51;;;;;;;38.17;12.37;;;;;;;;;;5101030;28;20048;-61
2024/01/27 04:18:16;;;;;;;27.70;10.63;;;;;;;;;;5116865;28;20320;-62
2024/01/27 04:20:42;;;;;;;33.92;10.38;;;;;;;;;;5121035;28;20028;-61
2024/01/27 04:23:08;;;;;;;33.57;10.10;;;;;;;;;;5114741;28;20089;-60
2024/01/27 04:25:33;;;;;;;26.27;7.97;;;;;;;;;;5114730;28;20047;-62
2024/01/27 04:27:58;;;;;;;31.03;9.83;;;;;;;;;;5127695;28;20038;-61
2024/01/27 04:30:24;;;;;;;30.73;10.35;;;;;;;;;;5118170;28;20052;-60
2024/01/27 04:32:51;;;;;;;31.87;10.80;;;;;;;;;;5114324;28;20047;-60
2024/01/27 04:35:17;;;;;;;33.80;10.15;;;;;;;;;;5120053;28;20039;-61
2024/01/27 04:37:44;;;;;;;32.57;9.67;;;;;;;;;;5124301;28;20028;-61
2024/01/27 04:40:09;;;;;;;;;;;;;;;;;;5109704;28;20268;-61
2024/01/27 04:42:37;;;;;;;26.67;9.47;;;;;;;;;;5114356;28;19979;-62
2024/01/27 04:45:04;;;;;;;29.80;10.02;;;;;;;;;;5114215;28;20028;-61
2024/01/27 04:47:30;;;;;;;32.15;10.20;;;;;;;;;;5121547;28;20023;-63
2024/01/27 04:49:55;;;;;;;32.33;10.05;;;;;;;;;;5114805;28;20035;-61
2024/01/27 04:52:21;;;;;;;29.97;9.47;;;;;;;;;;5118333;28;20049;-61
2024/01/27 04:54:46;;;;;;;36.22;10.18;;;;;;;;;;5128158;28;20024;-61
2024/01/27 04:57:12;;;;;;;31.23;9.80;;;;;;;;;;5121051;28;20028;-61
2024/01/27 04:59:37;;;;;;;27.37;10.50;;;;;;;;;;5109790;28;20252;-61
2024/01/27 05:02:03;;;;;;;33.57;10.07;;;;;;;;;;5111070;28;20368;-61
2024/01/27 05:04:29;;;;;;;31.60;8.50;;;;;;;;;;5112430;28;20019;-62
2024/01/27 05:06:55;;;;;;;25.45;9.95;;;;;;;;;;5104930;28;20084;-61
2024/01/27 05:09:20;;;;;;;31.88;9.90;;;;;;;;;;5106410;28;20029;-61
2024/01/27 05:11:45;;;;;;;39.57;9.40;;;;;;;;;;5123739;28;20039;-61
2024/01/27 05:14:11;;;;;;;34.03;9.40;;;;;;;;;;5125331;28;20050;-61
2024/01/27 05:16:37;;;;;;;34.90;10.60;;;;;;;;;;5124217;28;20039;-60
2024/01/27 05:19:02;;;;;;;37.67;10.83;;;;;;;;;;5127091;28;20048;-61
2024/01/27 05:21:28;;;;;;;32.88;9.18;;;;;;;;;;5117310;28;20272;-61
2024/01/27 05:23:54;;;;;;;27.17;10.75;;;;;;;;;;5105198;28;20067;-61
2024/01/27 05:26:20;;;;;;;32.47;9.88;;;;;;;;;;5117500;28;20074;-60
2024/01/27 05:28:46;;;;;;;28.48;9.45;;;;;;;;;;5120176;28;20054;-61
2024/01/27 05:31:11;;;;;;;28.10;10.70;;;;;;;;;;5129526;28;20043;-61
2024/01/27 05:33:37;;;;;;;25.77;10.07;;;;;;;;;;5120592;28;20053;-61
2024/01/27 05:36:03;;;;;;;27.98;9.52;;;;;;;;;;5119726;28;20279;-60
2024/01/27 05:38:30;;;;;;;23.40;9.80;;;;;;;;;;5117355;28;20032;-60
2024/01/27 05:40:55;;;;;;;;;;;;;;;;;;5125229;28;20069;-60
2024/01/27 05:43:20;;;;;;;29.13;11.67;;;;;;;;;;5117691;28;19983;-61
2024/01/27 05:45:46;;;;;;;20.70;9.60;;;;;;;;;;5116942;28;20043;-61
2024/01/27 05:48:12;;;;;;;24.38;10.25;;;;;;;;;;5119082;28;20311;-60
2024/01/27 05:50:37;;;;;;;28.60;10.93;;;;;;;;;;5126503;28;20042;-61
2024/01/27 05:53:03;;;;;;;28.77;9.02;;;;;;;;;;5119120;28;20016;-61
2024/01/27 05:55:29;;;;;;;24.33;10.82;;;;;;;;;;5117126;28;20024;-62
2024/01/27 05:57:57;;;;;;;28.90;10.73;;;;;;;;;;5120325;28;20042;-61
2024/01/27 06:00:23;;;;;;;26.02;11.10;;;;;;;;;;5126480;28;20264;-62
2024/01/27 06:02:49;;;;;;;34.10;11.23;;;;;;;;;;5116546;28;20069;-60
2024/01/27 06:05:15;;;;;;;29.30;11.75;;;;;;;;;;5111391;28;20257;-61
2024/01/27 06:07:40;;;;;;;31.73;10.63;;;;;;;;;;5106366;28;20024;-61
2024/01/27 06:10:08;;;;;;;27.97;12.10;;;;;;;;;;5120321;28;20035;-61
2024/01/27 06:12:34;;;;;;;29.58;11.82;;;;;;;;;;5116442;28;20036;-61
2024/01/27 06:14:59;;;;;;;31.83;11.80;;;;;;;;;;5116997;28;20058;-61
2024/01/27 06:17:25;;;;;;;32.72;11.73;;;;;;;;;;5116310;28;20032;-60
2024/01/27 06:19:51;;;;;;;24.10;10.23;;;;;;;;;;5116627;28;20091;-61
2024/01/27 06:22:16;;;;;;;23.75;8.85;;;;;;;;;;5106456;28;20033;-62
2024/01/27 06:24:43;;;;;;;17.83;9.15;;;;;;;;;;5114562;28;20036;-62
2024/01/27 06:27:09;;;;;;;45.13;12.82;;;;;;;;;;5126873;28;20104;-61
2024/01/27 06:29:34;;;;;;;41.67;11.13;;;;;;;;;;5127292;28;20052;-60
2024/01/27 06:31:59;;;;;;;31.90;11.37;;;;;;;;;;5115076;28;20280;-61
2024/01/27 06:34:24;;;;;;;26.73;12.50;;;;;;;;;;5116317;28;20020;-61
2024/01/27 06:36:50;;;;;;;34.20;10.80;;;;;;;;;;5116189;28;20052;-60
2024/01/27 06:39:15;;;;;;;26.13;11.13;;;;;;;;;;5126905;28;20035;-61
2024/01/27 06:41:41;;;;;;;28.75;10.82;;;;;;;;;;5118782;28;20034;-61
2024/01/27 06:44:07;;;;;;;37.37;12.33;;;;;;;;;;5116093;28;20032;-61
2024/01/27 06:46:33;;;;;;;31.95;11.50;;;;;;;;;;5115977;28;20328;-61
2024/01/27 06:48:58;;;;;;;24.60;9.30;;;;;;;;;;5118084;28;20050;-61
2024/01/27 06:51:24;;;;;;;27.45;13.38;;;;;;;;;;5120328;28;20088;-61
2024/01/27 06:53:49;;;;;;;26.50;10.83;;;;;;;;;;5122913;28;20044;-61
2024/01/27 06:56:14;;;;;;;39.13;12.90;;;;;;;;;;5120500;28;20031;-61
2024/01/27 06:58:40;;;;;;;31.55;11.82;;;;;;;;;;5119518;28;20038;-61
2024/01/27 07:01:09;;;;;;;25.67;12.15;;;;;;;;;;5120069;28;20028;-61
2024/01/27 07:03:34;;;;;;;25.80;11.68;;;;;;;;;;5107976;28;20033;-61
2024/01/27 07:06:01;;;;;;;31.40;11.43;;;;;;;;;;5109645;28;20034;-60
2024/01/27 07:08:26;;;;;;;30.13;13.30;;;;;;;;;;5116786;28;20035;-61
2024/01/27 07:10:51;;;;;;;41.87;13.27;;;;;;;;;;5115119;28;20268;-61
2024/01/27 07:13:17;;;;;;;27.92;12.25;;;;;;;;;;5113562;28;20028;-62
2024/01/27 07:15:42;;;;;;;43.80;13.85;;;;;;;;;;5114448;28;20039;-61
2024/01/27 07:18:09;;;;;;;37.07;13.67;;;;;;;;;;5115363;28;20038;-60
2024/01/27 07:20:35;;;;;;;30.17;12.18;;;;;;;;;;5126858;28;20257;-62
2024/01/27 07:23:00;;;;;;;26.83;12.38;;;;;;;;;;5120250;28;20036;-62
2024/01/27 07:25:28;;;;;;;39.17;12.13;;;;;;;;;;5114814;28;20054;-60
2024/01/27 07:27:54;;;;;;;50.10;14.38;;;;;;;;;;5115334;28;20306;-60
2024/01/27 07:30:20;;;;;;;32.00;14.25;;;;;;;;;;5120534;28;20106;-62
2024/01/27 07:32:46;;;;;;;34.63;13.70;;;;;;;;;;5116122;28;20032;-61
2024/01/27 07:35:11;;;;;;;44.03;12.77;;;;;;;;;;5110850;28;20257;-60
2024/01/27 07:37:37;;;;;;;36.65;13.65;;;;;;;;;;5115069;28;20039;-62
2024/01/27 07:40:03;;;;;;;35.27;13.10;;;;;;;;;;5120947;28;20068;-61
2024/01/27 07:42:28;;;;;;;29.03;11.07;;;;;;;;;;5110689;28;20281;-61
2024/01/27 07:44:54;;;;;;;37.72;13.10;;;;;;;;;;5107373;28;20043;-61
2024/01/27 07:47:19;;;;;;;31.73;12.97;;;;;;;;;;5114372;28;20036;-61
2024/01/27 07:49:45;;;;;;;30.17;13.47;;;;;;;;;;5103153;28;20055;-60
2024/01/27 07:52:10;;;;;;;29.30;10.67;;;;;;;;;;5106903;28;20300;-62
2024/01/27 07:54:40;;;;;;;28.73;10.45;;;;;;;;;;5114926;28;20038;-61
2024/01/27 07:57:05;;;;;;;31.10;12.95;;;;;;;;;;5114628;28;20028;-62
2024/01/27 07:59:31;;;;;;;34.78;13.20;;;;;;;;;;5119095;28;20042;-61
2024/01/27 08:01:56;;;;;;;42.93;14.13;;;;;;;;;;5112524;28;20041;-61
2024/01/27 08:04:22;;;;;;;23.25;12.65;;;;;;;;;;5114789;28;20031;-62
2024/01/27 08:06:48;;;;;;;28.33;13.23;;;;;;;;;;5113351;28;20047;-61
2024/01/27 08:09:14;;;;;;;34.23;12.80;;;;;;;;;;5109745;28;20233;-61
2024/01/27 08:11:39;;;;;;;40.60;14.17;;;;;;;;;;5113811;28;20265;-61
2024/01/27 08:14:04;;;;;;;48.30;13.80;;;;;;;;;;5118121;28;20099;-61
2024/01/27 08:16:30;;;;;;;31.08;14.25;;;;;;;;;;5110101;28;20029;-61
2024/01/27 08:18:55;;;;;;;41.23;13.00;;;;;;;;;;5110049;28;20038;-62
2024/01/27 08:21:21;;;;;;;27.80;12.67;;;;;;;;;;5106318;28;20052;-61
2024/01/27 08:23:46;;;;;;;34.10;12.73;;;;;;;;;;5107853;28;20044;-62
2024/01/27 08:26:12;;;;;;;36.53;13.50;;;;;;;;;;5105872;28;20032;-62
2024/01/27 08:28:37;;;;;;;25.13;11.80;;;;;;;;;;5114165;28;20028;-61
2024/01/27 08:31:03;;;;;;;37.10;13.30;;;;;;;;;;5104242;28;20286;-61
2024/01/27 08:33:28;;;;;;;32.77;13.60;;;;;;;;;;5112309;28;20070;-60
2024/01/27 08:35:54;;;;;;;33.65;12.77;;;;;;;;;;5109733;28;20040;-61
2024/01/27 08:38:19;;;;;;;45.70;15.60;;;;;;;;;;5104449;28;20031;-61
2024/01/27 08:40:45;;;;;;;32.83;14.43;;;;;;;;;;5128758;28;20032;-62
2024/01/27 08:43:10;;;;;;;37.57;14.03;;;;;;;;;;5126029;28;20028;-62
2024/01/27 08:45:36;;;;;;;;;;;;;;;;;;5118548;28;20058;-60
2024/01/27 08:48:02;;;;;;;36.93;13.73;;;;;;;;;;5126363;28;19908;-61
2024/01/27 08:50:27;;;;;;;31.57;13.63;;;;;;;;;;5125693;28;20028;-62
2024/01/27 08:52:53;;;;;;;34.47;14.93;;;;;;;;;;5115745;28;20288;-61
2024/01/27 08:55:19;;;;;;;30.93;12.03;;;;;;;;;;5109894;28;20280;-60
2024/01/27 08:57:46;;;;;;;35.83;12.50;;;;;;;;;;5117892;28;20028;-61
2024/01/27 09:00:13;;;;;;;29.30;12.57;;;;;;;;;;5118042;28;20032;-61
2024/01/27 09:02:38;;;;;;;29.40;12.93;;;;;;;;;;5117480;28;20042;-61
2024/01/27 09:05:05;;;;;;;35.97;14.00;;;;;;;;;;5118315;28;20036;-61
2024/01/27 09:07:30;;;;;;;36.13;14.70;;;;;;;;;;5122639;28;20020;-62
2024/01/27 09:09:56;;;;;;;28.33;12.87;;;;;;;;;;5110701;28;20261;-62
2024/01/27 09:12:21;;;;;;;33.07;13.20;;;;;;;;;;5118974;28;20052;-61
2024/01/27 09:14:47;;;;;;;33.28;12.90;;;;;;;;;;5123769;28;20031;-61
2024/01/27 09:17:12;;;;;;;34.73;13.23;;;;;;;;;;5117735;28;20032;-61
2024/01/27 09:19:38;;;;;;;33.43;13.13;;;;;;;;;;5117914;28;20271;-62
2024/01/27 09:22:04;;;;;;;29.43;11.17;;;;;;;;;;5119750;28;20039;-62
2024/01/27 09:24:30;;;;;;;32.53;11.15;;;;;;;;;;5117227;28;20253;-61
2024/01/27 09:26:55;;;;;;;27.80;9.23;;;;;;;;;;5117734;28;20054;-61
2024/01/27 09:29:20;;;;;;;25.47;8.23;;;;;;;;;;5109156;28;20158;-62
2024/01/27 09:31:45;;;;;;;17.33;8.50;;;;;;;;;;5124550;28;20080;-60
2024/01/27 09:34:11;;;;;;;24.83;9.40;;;;;;;;;;5123330;28;20087;-61
2024/01/27 09:36:36;;;;;;;20.00;8.65;;;;;;;;;;5117858;28;20031;-62
2024/01/27 09:39:02;;;;;;;17.52;7.53;;;;;;;;;;5113182;28;20037;-61
2024/01/27 09:41:31;;;;;;;17.45;6.72;;;;;;;;;;5100909;28;20028;-61
2024/01/27 09:43:58;;;;;;;34.43;7.83;;;;;;;;;;5112496;28;20040;-62
2024/01/27 09:46:25;;;;;;;27.07;8.70;;;;;;;;;;5117460;28;20257;-61
2024/01/27 09:48:51;;;;;;;23.80;7.45;;;;;;;;;;5123051;28;20276;-61
2024/01/27 09:51:17;;;;;;;29.88;8.90;;;;;;;;;;5121267;28;20035;-62
2024/01/27 09:53:42;;;;;;;30.15;8.75;;;;;;;;;;5126677;28;20049;-61
2024/01/27 09:56:08;;;;;;;19.73;6.82;;;;;;;;;;5120100;28;20039;-61
2024/01/27 09:58:34;;;;;;;20.02;8.05;;;;;;;;;;5116984;28;20032;-61
2024/01/27 10:01:00;;;;;;;21.43;8.13;;;;;;;;;;5116914;28;20036;-62
2024/01/27 10:03:26;;;;;;;;;;;;;;;;;;5126625;28;20023;-62
2024/01/27 10:05:56;;;;;;;22.77;8.10;;;;;;;;;;5120075;28;19915;-63
2024/01/27 10:08:22;;;;;;;19.43;6.67;;;;;;;;;;5116833;28;20081;-62
2024/01/27 10:10:54;;;;;;;25.48;8.90;;;;;;;;;;5117308;28;20020;-62
2024/01/27 10:13:25;;;;;;;23.13;8.70;;;;;;;;;;5132537;27;20038;-64
2024/01/27 10:16:08;;;;;;;20.57;8.60;;;;;;;;;;5116509;28;20036;-62
2024/01/27 10:18:34;;;;;;;21.87;7.10;;;;;;;;;;5119477;28;20035;-63
2024/01/27 10:20:59;;;;;;;19.40;7.38;;;;;;;;;;5119490;28;20028;-64
2024/01/27 10:23:25;;;;;;;22.92;7.28;;;;;;;;;;5121660;28;20096;-62
2024/01/27 10:25:51;;;;;;;20.73;8.07;;;;;;;;;;5128835;28;20026;-62
2024/01/27 10:28:17;;;;;;;24.13;8.98;;;;;;;;;;5115434;28;20032;-62
2024/01/27 10:30:43;;;;;;;26.80;9.80;;;;;;;;;;5103704;28;20016;-63
2024/01/27 10:33:13;;;;;;;29.95;9.57;;;;;;;;;;5120905;28;20031;-62
2024/01/27 10:35:39;;;;;;;24.97;10.20;;;;;;;;;;5124616;28;20089;-62
2024/01/27 10:38:05;;;;;;;23.15;10.20;;;;;;;;;;5115935;28;20036;-61
2024/01/27 10:40:31;;;;;;;21.83;8.13;;;;;;;;;;5116317;28;20052;-62
2024/01/27 10:43:08;;;;;;;21.55;9.00;;;;;;;;;;5115021;28;20028;-61
2024/01/27 10:45:34;;;;;;;30.93;8.63;;;;;;;;;;5109438;28;20032;-61
2024/01/27 10:47:59;;;;;;;28.43;7.70;;;;;;;;;;5114002;28;20075;-61
2024/01/27 10:50:25;;;;;;;23.40;7.85;;;;;;;;;;5106340;28;20047;-61
2024/01/27 10:52:52;;;;;;;20.30;7.43;;;;;;;;;;5125688;28;20065;-61
2024/01/27 10:55:17;;;;;;;24.88;6.95;;;;;;;;;;5121022;28;20471;-61
2024/01/27 10:57:44;;;;;;;28.90;7.10;;;;;;;;;;5113917;28;20034;-61
2024/01/27 11:00:10;;;;;;;19.23;7.73;;;;;;;;;;5123274;28;20032;-61
2024/01/27 11:02:36;;;;;;;19.20;6.63;;;;;;;;;;5121599;28;20032;-60
2024/01/27 11:05:03;;;;;;;21.40;6.72;;;;;;;;;;5104183;28;20031;-62
2024/01/27 11:07:32;;;;;;;24.93;7.37;;;;;;;;;;5111468;28;20021;-62
2024/01/27 11:09:57;;;;;;;20.30;7.10;;;;;;;;;;5102985;28;20037;-62
2024/01/27 11:12:24;;;;;;;27.70;7.68;;;;;;;;;;5111135;28;20039;-62
2024/01/27 11:14:51;;;;;;;;;;;;;;;;;;5109557;28;20040;-61
2024/01/27 11:17:17;;;;;;;18.35;6.35;;;;;;;;;;5102940;28;19915;-62
2024/01/27 11:19:42;;;;;;;25.65;7.00;;;;;;;;;;5120510;28;20039;-62
2024/01/27 11:22:23;;;;;;;18.13;6.78;;;;;;;;;;5114446;28;20028;-62
2024/01/27 11:24:48;;;;;;;16.87;6.13;;;;;;;;;;5112388;28;20127;-62
2024/01/27 11:27:13;;;;;;;24.60;7.33;;;;;;;;;;5113162;28;20036;-62
2024/01/27 11:29:46;;;;;;;18.38;6.63;;;;;;;;;;5104461;28;20038;-62
2024/01/27 11:32:12;;;;;;;19.33;6.60;;;;;;;;;;5113933;28;20064;-62
2024/01/27 11:34:42;;;;;;;15.65;5.93;;;;;;;;;;5109972;28;20028;-62
2024/01/27 11:37:14;;;;;;;19.20;6.00;;;;;;;;;;5107008;28;20040;-61
2024/01/27 11:39:39;;;;;;;17.77;6.27;;;;;;;;;;5112354;28;20028;-62
2024/01/27 11:42:05;;;;;;;21.67;7.35;;;;;;;;;;5107159;28;20036;-61
2024/01/27 11:44:31;;;;;;;14.88;5.68;;;;;;;;;;5103365;28;20028;-61
2024/01/27 11:46:56;;;;;;;21.65;6.60;;;;;;;;;;5108705;28;20039;-61
2024/01/27 11:49:21;;;;;;;17.73;6.60;;;;;;;;;;5110316;28;20039;-61
2024/01/27 11:51:47;;;;;;;31.80;7.05;;;;;;;;;;5107822;28;20031;-61
2024/01/27 11:54:13;;;;;;;17.55;5.72;;;;;;;;;;5112855;28;20047;-61
2024/01/27 11:56:38;;;;;;;23.08;5.88;;;;;;;;;;5113870;28;20035;-62
2024/01/27 11:59:04;;;;;;;12.23;5.22;;;;;;;;;;5113697;28;20059;-62
2024/01/27 12:01:29;;;;;;;14.15;5.30;;;;;;;;;;5115290;28;20032;-62
2024/01/27 12:03:55;;;;;;;26.43;6.13;;;;;;;;;;5113236;28;20039;-62
2024/01/27 12:06:20;;;;;;;14.40;5.47;;;;;;;;;;5112372;28;20346;-61
2024/01/27 12:08:47;;;;;;;19.52;5.07;;;;;;;;;;5116708;28;20252;-62
2024/01/27 12:11:12;;;;;;;;;;;;;;;;;;5112907;28;20065;-62
2024/01/27 12:13:37;;;;;;;21.17;5.23;;;;;;;;;;5117427;28;19908;-62
2024/01/27 12:16:03;;;;;;;17.90;5.68;;;;;;;;;;5115808;28;20052;-62
2024/01/27 12:18:29;;;;;;;16.00;4.45;;;;;;;;;;5111666;28;20051;-62
2024/01/27 12:20:55;;;;;;;21.00;5.25;;;;;;;;;;5110099;28;20037;-62
2024/01/27 12:23:21;;;;;;;11.83;4.43;;;;;;;;;;5111997;28;20043;-61
2024/01/27 12:25:52;;;;;;;20.33;5.10;;;;;;;;;;5113395;28;20044;-62
2024/01/27 12:28:19;;;;;;;12.60;4.47;;;;;;;;;;5113764;28;20256;-61
2024/01/27 12:30:44;;;;;;;16.93;4.83;;;;;;;;;;5113364;28;20028;-61
2024/01/27 12:33:11;;;;;;;20.05;5.07;;;;;;;;;;5113851;28;20032;-61
2024/01/27 12:35:37;;;;;;;18.03;4.80;;;;;;;;;;5112581;28;20061;-61
2024/01/27 12:38:02;;;;;;;17.90;4.40;;;;;;;;;;5118312;28;20028;-62
2024/01/27 12:40:28;;;;;;;;;;;;;;;;;;5114935;28;20039;-61
2024/01/27 12:42:54;;;;;;;19.47;4.80;;;;;;;;;;5123977;28;19919;-61
2024/01/27 12:45:19;;;;;;;20.55;4.93;;;;;;;;;;5112671;28;20024;-61
2024/01/27 12:47:45;;;;;;;14.32;5.10;;;;;;;;;;5104440;28;20051;-61
2024/01/27 12:50:10;;;;;;;27.83;5.40;;;;;;;;;;5101142;28;20087;-61
2024/01/27 12:52:36;;;;;;;15.18;3.97;;;;;;;;;;5103290;28;20078;-61
2024/01/27 12:55:02;;;;;;;;;;;;;;;;;;5113576;28;20035;-61
2024/01/27 12:57:27;;;;;;;22.50;4.40;;;;;;;;;;5113102;28;19908;-61
2024/01/27 12:59:53;;;;;;;21.08;4.28;;;;;;;;;;5113089;28;20036;-61
2024/01/27 13:02:18;;;;;;;17.38;4.50;;;;;;;;;;5114209;28;20047;-62
2024/01/27 13:04:44;;;;;;;14.15;4.28;;;;;;;;;;5115445;28;20024;-61
2024/01/27 13:07:09;;;;;;;22.20;4.60;;;;;;;;;;5112965;28;20096;-61
2024/01/27 13:09:36;;;;;;;19.27;5.00;;;;;;;;;;5106315;28;20261;-60
2024/01/27 13:12:02;;;;;;;13.90;4.70;;;;;;;;;;5114675;28;20039;-61
2024/01/27 13:14:27;;;;;;;14.52;5.28;;;;;;;;;;5117716;28;20042;-61
2024/01/27 13:16:54;;;;;;;18.70;4.57;;;;;;;;;;5124876;28;20070;-60
2024/01/27 13:19:20;;;;;;;16.80;5.10;;;;;;;;;;5117563;28;20031;-61
2024/01/27 13:21:45;;;;;;;23.15;5.28;;;;;;;;;;5119964;28;20035;-62
2024/01/27 13:24:12;;;;;;;17.92;4.65;;;;;;;;;;5119636;28;20032;-61
2024/01/27 13:26:37;;;;;;;;;;;;;;;;;;5117335;28;20028;-63
2024/01/27 13:29:04;;;;;;;18.60;5.07;;;;;;;;;;5118736;28;19923;-62
2024/01/27 13:31:30;;;;;;;15.77;4.77;;;;;;;;;;5116856;28;20024;-62
2024/01/27 13:33:56;;;;;;;;;;;;;;;;;;5126079;28;20129;-64
2024/01/27 13:36:22;;;;;;;18.97;5.00;;;;;;;;;;5116915;28;19912;-63
2024/01/27 13:38:48;;;;;;;21.42;5.90;;;;;;;;;;5098908;28;20020;-62
2024/01/27 13:41:13;;;;;;;14.85;4.50;;;;;;;;;;5116957;28;20032;-62
2024/01/27 13:43:39;;;;;;;15.00;4.57;;;;;;;;;;5115220;28;20021;-60
2024/01/27 13:46:04;;;;;;;16.30;5.20;;;;;;;;;;5111808;28;20064;-62
2024/01/27 13:48:30;;;;;;;16.25;4.65;;;;;;;;;;5119956;28;20031;-61
2024/01/27 13:50:56;;;;;;;25.55;6.00;;;;;;;;;;5104345;28;20082;-62
2024/01/27 13:53:21;;;;;;;15.93;5.07;;;;;;;;;;5109928;28;20029;-63
2024/01/27 13:55:47;;;;;;;18.63;5.35;;;;;;;;;;5112013;28;20698;-63
2024/01/27 13:58:12;;;;;;;19.35;6.18;;;;;;;;;;5115336;28;20057;-62
2024/01/27 14:00:38;;;;;;;22.13;5.13;;;;;;;;;;5116061;28;20036;-62
2024/01/27 14:03:04;;;;;;;19.08;5.85;;;;;;;;;;5126140;28;20092;-62
2024/01/27 14:05:29;;;;;;;16.83;5.55;;;;;;;;;;5116470;28;20032;-62
2024/01/27 14:07:56;;;;;;;17.88;5.55;;;;;;;;;;5116142;28;20032;-63
2024/01/27 14:10:21;;;;;;;13.20;4.82;;;;;;;;;;5116265;28;20036;-61
2024/01/27 14:12:46;;;;;;;21.07;5.70;;;;;;;;;;5121645;28;20024;-63
2024/01/27 14:15:11;;;;;;;24.47;5.30;;;;;;;;;;5121236;28;20039;-63
2024/01/27 14:17:37;;;;;;;23.40;5.68;;;;;;;;;;5123342;28;20032;-63
2024/01/27 14:20:03;;;;;;;20.98;4.78;;;;;;;;;;5120832;28;20090;-63